Time;durP1;ratioP1;P1;durP2;ratioP2;P2;SDS_P1;SDS_P2;PMS_P1;PMS_P2;Temp;Humidity;BMP_temperature;BMP_pressure;BME280_temperature;BME280_humidity;BME280_pressure;Samples;Min_cycle;Max_cycle;Signal;HPM_P1;HPM_P2
2021/01/29 00:00:24;;;;;;;10.48;9.38;;;11.40;99.90;11.30;99081.00;;;;341635;28;87379;-88
2021/01/29 00:00:38;;;;;;;12.02;10.18;;;11.40;99.90;11.10;99077.00;;;;338745;28;87819;-87
2021/01/29 00:00:50;;;;;;;12.27;10.95;;;11.30;99.90;11.30;99067.00;;;;338942;28;88542;-88
2021/01/29 00:01:02;;;;;;;11.65;10.45;;;11.30;99.90;11.30;99072.00;;;;338928;28;87216;-87
2021/01/29 00:01:13;;;;;;;11.05;9.95;;;11.30;99.90;11.40;99079.00;;;;337628;28;88331;-87
2021/01/29 00:01:26;;;;;;;11.30;10.10;;;11.30;99.90;11.30;99074.00;;;;338730;28;86562;-88
2021/01/29 00:01:38;;;;;;;11.90;10.57;;;11.30;99.90;11.30;99067.00;;;;340290;28;89786;-87
2021/01/29 00:01:49;;;;;;;11.75;10.55;;;11.30;99.90;11.30;99068.00;;;;340186;28;86653;-87
2021/01/29 00:02:01;;;;;;;11.38;10.10;;;11.30;99.90;11.30;99065.00;;;;340138;28;89319;-87
2021/01/29 00:02:13;;;;;;;11.10;9.90;;;11.30;99.90;11.40;99064.00;;;;339677;28;86272;-87
2021/01/29 00:02:24;;;;;;;10.82;9.70;;;11.30;99.90;11.40;99073.00;;;;341438;28;88647;-87
2021/01/29 00:02:36;;;;;;;11.27;10.07;;;11.30;99.90;11.30;99066.00;;;;341466;28;86955;-88
2021/01/29 00:02:48;;;;;;;11.90;10.68;;;11.30;99.90;11.30;99059.00;;;;341551;28;89429;-87
2021/01/29 00:03:08;;;;;;;11.15;10.05;;;11.30;99.90;11.30;99064.00;;;;341526;28;86113;-87
2021/01/29 00:03:19;;;;;;;10.65;9.57;;;11.30;99.90;11.40;99058.00;;;;341384;28;90005;-87
2021/01/29 00:03:31;;;;;;;10.95;9.85;;;11.30;99.90;11.40;99068.00;;;;341523;28;86980;-87
2021/01/29 00:03:42;;;;;;;10.95;9.80;;;11.30;99.90;11.50;99063.00;;;;340306;28;89990;-87
2021/01/29 00:03:54;;;;;;;10.45;9.35;;;11.30;99.90;11.40;99065.00;;;;338800;28;86061;-87
2021/01/29 00:04:05;;;;;;;10.63;9.55;;;11.30;99.90;11.50;99067.00;;;;341743;28;89161;-88
2021/01/29 00:04:16;;;;;;;10.57;9.57;;;11.30;99.90;11.50;99068.00;;;;339986;28;86438;-87
2021/01/29 00:04:28;;;;;;;10.38;9.40;;;11.30;99.90;11.40;99060.00;;;;341769;28;87434;-87
2021/01/29 00:04:40;;;;;;;10.35;9.27;;;11.30;99.90;11.60;99066.00;;;;341540;28;86183;-87
2021/01/29 00:04:51;;;;;;;10.90;9.00;;;11.30;99.90;11.50;99060.00;;;;338859;28;89278;-87
2021/01/29 00:05:04;;;;;;;11.50;9.38;;;11.30;99.90;11.30;99070.00;;;;340246;28;86982;-88
2021/01/29 00:05:16;;;;;;;11.02;9.60;;;11.30;99.90;11.50;99058.00;;;;341869;28;88341;-87
2021/01/29 00:05:38;;;;;;;10.93;9.43;;;11.30;99.90;11.50;99061.00;;;;340841;28;86253;-87
2021/01/29 00:05:55;;;;;;;11.23;9.73;;;11.30;99.90;11.50;99059.00;;;;340257;28;89335;-87
2021/01/29 00:06:06;;;;;;;12.02;10.70;;;11.30;99.90;11.50;99055.00;;;;340184;28;86953;-87
2021/01/29 00:06:18;;;;;;;12.60;11.15;;;11.30;99.90;11.40;99069.00;;;;341387;28;89967;-87
2021/01/29 00:06:29;;;;;;;12.65;11.25;;;11.30;99.90;11.40;99056.00;;;;340203;28;86142;-88
2021/01/29 00:06:40;;;;;;;11.63;10.30;;;11.30;99.90;11.30;99063.00;;;;340282;28;87500;-87
2021/01/29 00:06:52;;;;;;;11.50;10.30;;;11.30;99.90;11.20;99058.00;;;;340181;28;86913;-87
2021/01/29 00:07:05;;;;;;;11.65;10.45;;;11.30;99.90;11.20;99061.00;;;;340191;28;89516;-88
2021/01/29 00:07:17;;;;;;;11.70;10.50;;;11.30;99.90;11.20;99054.00;;;;341412;28;86378;-87
2021/01/29 00:07:28;;;;;;;11.35;10.25;;;11.20;99.90;11.20;99058.00;;;;341144;28;90111;-87
2021/01/29 00:07:41;;;;;;;11.27;10.15;;;11.20;99.90;11.20;99060.00;;;;341446;28;86979;-88
2021/01/29 00:07:52;;;;;;;12.38;10.77;;;11.20;99.90;11.20;99066.00;;;;341555;28;89603;-88
2021/01/29 00:08:04;;;;;;;13.55;11.55;;;11.20;99.90;11.20;99059.00;;;;341432;28;87050;-88
2021/01/29 00:08:15;;;;;;;13.75;11.65;;;11.20;99.90;11.40;99060.00;;;;339823;28;88132;-88
2021/01/29 00:08:26;;;;;;;13.15;10.88;;;11.20;99.90;11.30;99057.00;;;;339979;28;86738;-87
2021/01/29 00:08:38;;;;;;;11.48;10.00;;;11.20;99.90;11.30;99059.00;;;;339964;28;87889;-87
2021/01/29 00:08:49;;;;;;;11.88;10.63;;;11.20;99.90;11.30;99057.00;;;;340183;28;86866;-87
2021/01/29 00:09:01;;;;;;;12.32;10.88;;;11.20;99.90;11.20;99052.00;;;;341484;28;89645;-87
2021/01/29 00:09:12;;;;;;;12.43;11.10;;;11.20;99.90;11.30;99052.00;;;;338696;28;86945;-87
2021/01/29 00:09:24;;;;;;;11.93;10.73;;;11.20;99.90;11.20;99056.00;;;;340234;28;89616;-88
2021/01/29 00:09:35;;;;;;;12.20;11.00;;;11.20;99.90;11.10;99058.00;;;;340065;28;86091;-87
2021/01/29 00:09:46;;;;;;;12.50;11.27;;;11.20;99.90;11.20;99052.00;;;;342978;28;89435;-87
2021/01/29 00:09:58;;;;;;;13.13;11.77;;;11.20;99.90;11.30;99056.00;;;;341515;28;86845;-88
2021/01/29 00:10:10;;;;;;;12.25;10.90;;;11.20;99.90;11.30;99051.00;;;;341594;28;89411;-88
2021/01/29 00:10:22;;;;;;;12.30;10.40;;;11.20;99.90;11.30;99057.00;;;;342926;28;86335;-88
2021/01/29 00:10:34;;;;;;;12.45;10.52;;;11.20;99.90;11.30;99052.00;;;;341169;28;88862;-87
2021/01/29 00:10:46;;;;;;;11.25;10.10;;;11.20;99.90;11.30;99051.00;;;;341429;28;86116;-87
2021/01/29 00:10:57;;;;;;;11.27;10.18;;;11.20;99.90;11.30;99052.00;;;;344238;28;89836;-88
2021/01/29 00:11:09;;;;;;;11.68;10.48;;;11.20;99.90;11.30;99041.00;;;;342388;28;86995;-87
2021/01/29 00:11:20;;;;;;;12.75;11.07;;;11.20;99.90;11.40;99047.00;;;;340230;28;89861;-88
2021/01/29 00:11:32;;;;;;;11.93;10.63;;;11.20;99.90;11.40;99050.00;;;;338768;28;87398;-88
2021/01/29 00:11:43;;;;;;;11.20;10.05;;;11.20;99.90;11.40;99051.00;;;;338812;28;89222;-87
2021/01/29 00:11:54;;;;;;;11.70;10.50;;;11.20;99.90;11.30;99048.00;;;;338826;28;86058;-88
2021/01/29 00:12:06;;;;;;;11.70;10.50;;;11.20;99.90;11.30;99049.00;;;;340216;28;88861;-87
2021/01/29 00:12:18;;;;;;;11.77;10.50;;;11.20;99.90;11.30;99048.00;;;;341341;28;86351;-87
2021/01/29 00:12:29;;;;;;;12.18;10.68;;;11.20;99.90;11.30;99048.00;;;;341590;28;87348;-87
2021/01/29 00:12:40;;;;;;;12.32;10.85;;;11.20;99.90;11.50;99055.00;;;;341432;28;86960;-87
2021/01/29 00:12:52;;;;;;;12.18;10.88;;;11.20;99.90;11.40;99051.00;;;;341689;28;89625;-87
2021/01/29 00:13:04;;;;;;;11.43;10.15;;;11.20;99.90;11.50;99054.00;;;;341528;28;86767;-87
2021/01/29 00:13:16;;;;;;;11.95;10.13;;;11.20;99.90;11.50;99051.00;;;;342879;28;89431;-88
2021/01/29 00:13:28;;;;;;;10.68;9.38;;;11.30;99.90;11.60;99043.00;;;;342803;28;88928;-88
2021/01/29 00:13:39;;;;;;;11.00;9.63;;;11.30;99.90;11.50;99050.00;;;;343015;28;89126;-87
2021/01/29 00:13:50;;;;;;;11.38;10.27;;;11.30;99.90;11.50;99050.00;;;;342897;28;86850;-87
2021/01/29 00:14:02;;;;;;;11.90;10.57;;;11.30;99.90;11.50;99052.00;;;;341623;28;89102;-87
2021/01/29 00:14:14;;;;;;;12.07;10.68;;;11.30;99.90;11.50;99051.00;;;;340764;28;86457;-87
2021/01/29 00:14:25;;;;;;;12.10;10.25;;;11.30;99.90;11.40;99049.00;;;;340799;28;88496;-88
2021/01/29 00:14:37;;;;;;;11.65;10.35;;;11.30;99.90;11.50;99048.00;;;;340999;28;87479;-87
2021/01/29 00:14:48;;;;;;;11.02;9.77;;;11.30;99.90;11.50;99040.00;;;;340169;28;92319;-87
2021/01/29 00:15:00;;;;;;;11.55;10.13;;;11.30;99.90;11.40;99051.00;;;;340080;28;89206;-87
2021/01/29 00:15:18;;;;;;;12.52;10.60;;;11.30;99.90;11.50;99047.00;;;;339222;28;89462;-87
2021/01/29 00:15:30;;;;;;;11.63;10.38;;;11.30;99.90;11.60;99048.00;;;;341428;28;86981;-87
2021/01/29 00:15:42;;;;;;;10.98;9.88;;;11.30;99.90;11.50;99038.00;;;;342849;28;89585;-87
2021/01/29 00:15:54;;;;;;;11.68;10.18;;;11.40;99.90;11.50;99041.00;;;;344075;28;87689;-88
2021/01/29 00:16:05;;;;;;;12.82;10.68;;;11.40;99.90;11.50;99039.00;;;;341580;28;89488;-88
2021/01/29 00:16:17;;;;;;;12.57;10.60;;;11.30;99.90;11.60;99043.00;;;;340213;28;86180;-88
2021/01/29 00:16:28;;;;;;;11.25;10.15;;;11.30;99.90;11.50;99041.00;;;;341538;28;88691;-87
2021/01/29 00:16:39;;;;;;;11.68;10.43;;;11.40;99.90;11.50;99039.00;;;;341376;28;87210;-87
2021/01/29 00:16:51;;;;;;;13.77;10.90;;;11.30;99.90;11.60;99038.00;;;;341271;28;89901;-87
2021/01/29 00:17:04;;;;;;;13.57;10.45;;;11.40;99.90;11.70;99036.00;;;;341578;28;87236;-87
2021/01/29 00:17:15;;;;;;;11.98;10.05;;;11.40;99.90;11.60;99026.00;;;;341605;28;88123;-88
2021/01/29 00:17:27;;;;;;;11.20;10.05;;;11.30;99.90;11.60;99034.00;;;;343569;28;88900;-87
2021/01/29 00:17:39;;;;;;;11.77;10.57;;;11.40;99.90;11.60;99036.00;;;;341400;28;90073;-87
2021/01/29 00:17:51;;;;;;;11.63;10.40;;;11.30;99.90;11.60;99035.00;;;;339964;28;87614;-87
2021/01/29 00:18:03;;;;;;;12.02;10.45;;;11.40;99.90;11.70;99030.00;;;;341472;28;89613;-87
2021/01/29 00:18:15;;;;;;;11.45;10.13;;;11.40;99.90;11.70;99032.00;;;;342839;28;85453;-87
2021/01/29 00:18:27;;;;;;;12.13;10.02;;;11.40;99.90;11.70;99029.00;;;;341567;28;88794;-87
2021/01/29 00:18:38;;;;;;;12.05;10.23;;;11.40;99.90;11.70;99036.00;;;;340129;28;86878;-87
2021/01/29 00:18:50;;;;;;;11.23;10.00;;;11.40;99.90;11.70;99027.00;;;;341406;28;89202;-87
2021/01/29 00:19:02;;;;;;;11.18;10.07;;;11.40;99.90;11.60;99026.00;;;;342886;28;86932;-87
2021/01/29 00:19:13;;;;;;;10.98;9.88;;;11.40;99.90;11.60;99030.00;;;;340164;28;89141;-87
2021/01/29 00:19:24;;;;;;;10.85;9.75;;;11.40;99.90;11.70;99027.00;;;;341405;28;86986;-88
2021/01/29 00:19:36;;;;;;;10.98;9.88;;;11.40;99.90;11.60;99032.00;;;;343129;28;88338;-88
2021/01/29 00:19:47;;;;;;;11.18;10.07;;;11.40;99.90;11.70;99025.00;;;;342845;28;87038;-87
2021/01/29 00:19:59;;;;;;;11.60;10.45;;;11.40;99.90;11.70;99024.00;;;;342852;28;89655;-87
2021/01/29 00:20:15;;;;;;;11.57;10.48;;;11.40;99.90;11.60;99030.00;;;;340256;28;86455;-87
2021/01/29 00:20:27;;;;;;;11.90;10.70;;;11.40;99.90;11.80;99026.00;;;;339806;28;90736;-87
2021/01/29 00:20:40;;;;;;;11.52;10.40;;;11.40;99.90;11.80;99021.00;;;;341821;28;86160;-88
2021/01/29 00:20:51;;;;;;;9.95;8.95;;;11.40;99.90;11.90;99024.00;;;;344237;28;92095;-88
2021/01/29 00:21:03;;;;;;;9.80;8.82;;;11.50;99.90;11.90;99027.00;;;;342910;28;86896;-87
2021/01/29 00:21:14;;;;;;;9.82;8.88;;;11.50;99.90;11.90;99028.00;;;;342818;28;89499;-87
2021/01/29 00:21:26;;;;;;;10.00;9.07;;;11.50;99.90;11.90;99036.00;;;;342852;28;86944;-87
2021/01/29 00:21:37;;;;;;;10.50;9.40;;;11.50;99.90;12.00;99035.00;;;;341678;28;89569;-87
2021/01/29 00:21:48;;;;;;;10.73;9.63;;;11.50;99.90;11.90;99029.00;;;;341506;28;86796;-87
2021/01/29 00:22:00;;;;;;;11.72;10.46;;;11.50;99.90;11.80;99032.00;;;;343023;28;89920;-87
2021/01/29 00:22:11;;;;;;;12.38;10.98;;;11.50;99.90;11.80;99028.00;;;;342835;28;86158;-87
2021/01/29 00:22:22;;;;;;;11.60;10.38;;;11.60;99.90;11.80;99029.00;;;;341510;28;88993;-87
2021/01/29 00:22:34;;;;;;;11.42;10.22;;;11.60;99.90;11.70;99030.00;;;;338729;28;87121;-87
2021/01/29 00:22:46;;;;;;;10.38;9.38;;;11.60;99.90;11.70;99027.00;;;;341375;28;92131;-87
2021/01/29 00:22:58;;;;;;;10.43;9.43;;;11.60;99.90;11.70;99029.00;;;;341274;28;87147;-87
2021/01/29 00:23:09;;;;;;;10.27;9.27;;;11.60;99.90;11.80;99032.00;;;;341392;28;89682;-87
2021/01/29 00:23:21;;;;;;;10.75;9.65;;;11.60;99.90;11.60;99026.00;;;;341005;28;87111;-87
2021/01/29 00:23:32;;;;;;;11.73;10.38;;;11.60;99.90;11.60;99025.00;;;;342928;28;89466;-87
2021/01/29 00:23:43;;;;;;;12.75;11.13;;;11.50;99.90;11.60;99026.00;;;;343616;28;87179;-87
2021/01/29 00:23:55;;;;;;;13.45;11.52;;;11.60;99.90;11.60;99023.00;;;;340137;28;89565;-87
2021/01/29 00:24:07;;;;;;;13.88;11.52;;;11.50;99.90;11.60;99025.00;;;;340125;28;89033;-87
2021/01/29 00:24:19;;;;;;;13.43;11.70;;;11.50;99.90;11.50;99022.00;;;;341572;28;88772;-87
2021/01/29 00:24:30;;;;;;;12.52;11.27;;;11.50;99.90;11.40;99027.00;;;;340135;28;86911;-87
2021/01/29 00:24:41;;;;;;;12.40;11.20;;;11.50;99.90;11.40;99025.00;;;;341508;28;89572;-87
2021/01/29 00:24:53;;;;;;;12.57;11.35;;;11.50;99.90;11.40;99029.00;;;;342882;28;86771;-87
2021/01/29 00:25:09;;;;;;;12.88;11.43;;;11.50;99.90;11.40;99030.00;;;;342866;28;92952;-87
2021/01/29 00:25:37;;;;;;;13.52;11.18;;;11.40;99.90;11.40;99024.00;;;;339915;28;86918;-87
2021/01/29 00:25:52;;;;;;;12.63;11.32;;;11.40;99.90;11.50;99024.00;;;;340168;28;89841;-87
2021/01/29 00:26:03;;;;;;;13.05;11.57;;;11.40;99.90;11.50;99028.00;;;;341369;28;86962;-87
2021/01/29 00:26:15;;;;;;;12.65;11.35;;;11.40;99.90;11.70;99034.00;;;;341719;28;87056;-87
2021/01/29 00:26:26;;;;;;;12.77;11.05;;;11.40;99.90;11.70;99029.00;;;;341318;28;86270;-87
2021/01/29 00:26:37;;;;;;;11.27;10.07;;;11.40;99.90;11.70;99030.00;;;;341326;28;90025;-87
2021/01/29 00:26:49;;;;;;;11.75;10.18;;;11.40;99.90;11.70;99026.00;;;;340153;28;86979;-87
2021/01/29 00:27:00;;;;;;;12.38;11.07;;;11.40;99.90;11.60;99025.00;;;;340127;28;90776;-87
2021/01/29 00:27:11;;;;;;;12.80;11.45;;;11.40;99.90;11.70;99024.00;;;;338439;28;87785;-87
2021/01/29 00:27:23;;;;;;;12.52;11.20;;;11.40;99.90;11.60;99030.00;;;;338902;28;89518;-88
2021/01/29 00:27:34;;;;;;;12.85;11.07;;;11.40;99.90;11.70;99033.00;;;;338768;28;86965;-87
2021/01/29 00:27:45;;;;;;;12.93;11.30;;;11.40;99.90;11.60;99025.00;;;;338888;28;89879;-87
2021/01/29 00:27:57;;;;;;;12.15;10.88;;;11.40;99.90;11.50;99021.00;;;;340112;28;87011;-87
2021/01/29 00:28:08;;;;;;;12.57;11.32;;;11.40;99.90;11.60;99033.00;;;;342751;28;92218;-87
2021/01/29 00:28:20;;;;;;;13.20;11.80;;;11.40;99.90;11.60;99017.00;;;;340242;28;85912;-88
2021/01/29 00:28:32;;;;;;;12.82;11.52;;;11.40;99.90;11.50;99022.00;;;;338744;28;87905;-87
2021/01/29 00:28:43;;;;;;;13.57;12.15;;;11.40;99.90;11.50;99020.00;;;;338861;28;86900;-87
2021/01/29 00:28:54;;;;;;;14.77;12.27;;;11.40;99.90;11.50;99027.00;;;;340281;28;88371;-87
2021/01/29 00:29:06;;;;;;;15.05;12.20;;;11.40;99.90;11.50;99034.00;;;;338728;28;86916;-87
2021/01/29 00:29:17;;;;;;;13.13;11.73;;;11.40;99.90;11.50;99039.00;;;;338468;28;88850;-87
2021/01/29 00:29:28;;;;;;;13.40;12.10;;;11.40;99.90;11.40;99035.00;;;;340902;28;86160;-87
2021/01/29 00:29:40;;;;;;;13.68;12.27;;;11.30;99.90;11.40;99025.00;;;;341355;28;89584;-87
2021/01/29 00:29:51;;;;;;;13.02;11.70;;;11.30;99.90;11.50;99021.00;;;;342909;28;86015;-87
2021/01/29 00:30:04;;;;;;;12.02;10.82;;;11.30;99.90;11.50;99024.00;;;;338869;28;89774;-87
2021/01/29 00:30:17;;;;;;;12.10;10.85;;;11.40;99.90;11.50;99025.00;;;;341745;28;86256;-87
2021/01/29 00:30:29;;;;;;;14.60;11.75;;;11.30;99.90;11.50;99028.00;;;;338800;28;87811;-87
2021/01/29 00:30:41;;;;;;;14.68;11.73;;;11.30;99.90;11.50;99018.00;;;;340153;28;86139;-86
2021/01/29 00:30:54;;;;;;;13.77;12.02;;;11.30;99.90;11.40;99021.00;;;;341612;28;89182;-87
2021/01/29 00:31:05;;;;;;;13.60;12.20;;;11.30;99.90;11.40;99017.00;;;;341525;28;86075;-87
2021/01/29 00:31:17;;;;;;;13.73;12.32;;;11.30;99.90;11.50;99023.00;;;;341400;28;89500;-87
2021/01/29 00:31:29;;;;;;;12.98;11.68;;;11.40;99.90;11.50;99015.00;;;;342830;28;86838;-87
2021/01/29 00:31:40;;;;;;;13.13;11.82;;;11.40;99.90;11.50;99019.00;;;;340246;28;89104;-87
2021/01/29 00:31:52;;;;;;;13.05;11.75;;;11.40;99.90;11.50;99017.00;;;;340034;28;86982;-88
2021/01/29 00:32:04;;;;;;;13.75;12.43;;;11.40;99.90;11.40;99023.00;;;;340280;28;89338;-87
2021/01/29 00:32:15;;;;;;;13.48;12.18;;;11.40;99.90;11.40;99018.00;;;;338940;28;86369;-87
2021/01/29 00:32:27;;;;;;;13.13;11.82;;;11.40;99.90;11.40;99018.00;;;;339614;28;88868;-87
2021/01/29 00:32:38;;;;;;;13.05;11.75;;;11.40;99.90;11.40;99016.00;;;;341170;28;87384;-87
2021/01/29 00:32:50;;;;;;;13.90;12.45;;;11.30;99.90;11.40;99026.00;;;;340112;28;91287;-87
2021/01/29 00:33:04;;;;;;;14.55;13.00;;;11.30;99.90;11.40;99025.00;;;;341553;28;86900;-86
2021/01/29 00:33:16;;;;;;;14.23;12.55;;;11.30;99.90;11.40;99022.00;;;;338421;28;89637;-86
2021/01/29 00:33:28;;;;;;;13.98;11.85;;;11.30;99.90;11.50;99014.00;;;;338761;28;86997;-88
2021/01/29 00:33:39;;;;;;;12.95;11.05;;;11.30;99.90;11.50;99018.00;;;;340282;28;88022;-87
2021/01/29 00:33:51;;;;;;;12.95;10.85;;;11.30;99.90;11.50;99022.00;;;;341499;28;87337;-87
2021/01/29 00:34:02;;;;;;;12.40;11.15;;;11.30;99.90;11.60;99016.00;;;;341517;28;88411;-87
2021/01/29 00:34:13;;;;;;;11.93;10.73;;;11.40;99.90;11.60;99014.00;;;;340153;28;86207;-87
2021/01/29 00:34:25;;;;;;;11.85;10.65;;;11.30;99.90;11.60;99023.00;;;;340252;28;87814;-87
2021/01/29 00:34:36;;;;;;;12.45;11.18;;;11.40;99.90;11.60;99024.00;;;;340038;28;86969;-87
2021/01/29 00:34:48;;;;;;;13.02;11.70;;;11.40;99.90;11.70;99025.00;;;;338864;28;89478;-87
2021/01/29 00:34:59;;;;;;;12.80;11.43;;;11.40;99.90;11.70;99016.00;;;;341524;28;86853;-87
2021/01/29 00:35:11;;;;;;;12.13;10.63;;;11.40;99.90;11.70;99016.00;;;;342420;28;89255;-87
2021/01/29 00:35:24;;;;;;;11.32;10.13;;;11.40;99.90;11.70;99021.00;;;;340087;28;87007;-87
2021/01/29 00:35:36;;;;;;;11.73;10.60;;;11.40;99.90;11.80;99007.00;;;;340139;28;89283;-87
2021/01/29 00:35:47;;;;;;;11.63;10.52;;;11.40;99.90;11.80;99028.00;;;;341574;28;86013;-87
2021/01/29 00:35:58;;;;;;;11.82;10.40;;;11.40;99.90;11.80;99019.00;;;;341522;28;89269;-87
2021/01/29 00:36:10;;;;;;;12.38;10.75;;;11.50;99.90;11.80;99018.00;;;;341601;28;88674;-87
2021/01/29 00:36:21;;;;;;;12.57;10.80;;;11.50;99.90;11.70;99018.00;;;;341575;28;88464;-87
2021/01/29 00:36:33;;;;;;;12.02;10.80;;;11.50;99.90;11.70;99018.00;;;;342699;28;87097;-87
2021/01/29 00:36:45;;;;;;;12.40;11.20;;;11.50;99.90;11.60;99009.00;;;;341547;28;89283;-87
2021/01/29 00:36:56;;;;;;;12.43;11.18;;;11.50;99.90;11.70;99008.00;;;;341468;28;87166;-86
2021/01/29 00:37:08;;;;;;;12.50;11.20;;;11.50;99.90;11.70;99022.00;;;;340177;28;89652;-87
2021/01/29 00:37:19;;;;;;;14.60;11.20;;;11.50;99.90;11.60;99020.00;;;;340091;28;86908;-87
2021/01/29 00:37:31;;;;;;;15.93;11.70;;;11.50;99.90;11.70;99022.00;;;;341541;28;89698;-87
2021/01/29 00:37:42;;;;;;;15.10;12.32;;;11.50;99.90;11.70;99020.00;;;;342748;28;86385;-87
2021/01/29 00:37:54;;;;;;;13.25;11.85;;;11.50;99.90;11.70;99018.00;;;;341492;28;89925;-87
2021/01/29 00:38:06;;;;;;;13.30;11.98;;;11.50;99.90;11.60;99018.00;;;;341489;28;85604;-87
2021/01/29 00:38:17;;;;;;;12.95;11.65;;;11.50;99.90;11.70;99018.00;;;;339246;28;88756;-86
2021/01/29 00:38:29;;;;;;;12.25;11.05;;;11.50;99.90;11.80;99016.00;;;;341176;28;87041;-87
2021/01/29 00:38:40;;;;;;;11.98;10.77;;;11.50;99.90;11.80;99015.00;;;;339835;28;89898;-87
2021/01/29 00:38:51;;;;;;;12.57;11.27;;;11.50;99.90;11.80;99007.00;;;;340090;28;86076;-87
2021/01/29 00:39:07;;;;;;;13.07;11.77;;;11.50;99.90;11.80;99009.00;;;;339988;28;92114;-87
2021/01/29 00:39:19;;;;;;;14.20;12.80;;;11.50;99.90;11.70;99010.00;;;;338641;28;89190;-87
2021/01/29 00:39:30;;;;;;;15.15;13.65;;;11.50;99.90;11.60;99007.00;;;;340303;28;87132;-87
2021/01/29 00:39:41;;;;;;;14.88;13.38;;;11.50;99.90;11.60;99013.00;;;;340117;28;86973;-87
2021/01/29 00:39:53;;;;;;;13.93;12.48;;;11.50;99.90;11.60;99015.00;;;;341469;28;91168;-87
2021/01/29 00:40:05;;;;;;;14.52;12.43;;;11.50;99.90;11.60;99015.00;;;;341488;28;86603;-87
2021/01/29 00:40:17;;;;;;;13.90;12.35;;;11.50;99.90;11.70;99007.00;;;;341406;28;90005;-88
2021/01/29 00:40:28;;;;;;;13.13;11.82;;;11.50;99.90;11.80;99007.00;;;;340078;28;86172;-86
2021/01/29 00:40:41;;;;;;;12.27;11.07;;;11.50;99.90;11.60;99011.00;;;;340078;28;89740;-87
2021/01/29 00:40:53;;;;;;;12.98;11.68;;;11.50;99.90;11.40;99011.00;;;;340153;28;86980;-87
2021/01/29 00:41:04;;;;;;;13.27;11.93;;;11.50;99.90;11.40;99015.00;;;;340225;28;89282;-87
2021/01/29 00:41:21;;;;;;;13.40;12.07;;;11.50;99.90;11.50;99011.00;;;;338959;28;86560;-87
2021/01/29 00:41:32;;;;;;;13.93;12.45;;;11.50;99.90;11.50;99015.00;;;;341453;28;89702;-87
2021/01/29 00:41:43;;;;;;;14.05;12.00;;;11.50;99.90;11.50;99013.00;;;;341367;28;87082;-87
2021/01/29 00:41:55;;;;;;;12.85;11.20;;;11.40;99.90;11.50;99005.00;;;;338789;28;89502;-87
2021/01/29 00:42:06;;;;;;;12.43;11.13;;;11.40;99.90;11.50;99014.00;;;;340173;28;86212;-87
2021/01/29 00:42:17;;;;;;;12.73;11.52;;;11.40;99.90;11.50;99019.00;;;;341187;28;88592;-87
2021/01/29 00:42:28;;;;;;;13.13;11.75;;;11.50;99.90;11.50;99017.00;;;;341271;28;86923;-87
2021/01/29 00:42:40;;;;;;;13.52;12.13;;;11.40;99.90;11.50;99012.00;;;;340193;28;88979;-87
2021/01/29 00:42:51;;;;;;;13.68;11.93;;;11.40;99.90;11.60;99017.00;;;;340018;28;87501;-87
2021/01/29 00:43:04;;;;;;;12.80;11.45;;;11.40;99.90;11.60;99009.00;;;;340003;28;91605;-87
2021/01/29 00:43:16;;;;;;;12.55;10.70;;;11.40;99.90;11.60;99015.00;;;;337370;28;86443;-87
2021/01/29 00:43:27;;;;;;;13.25;11.15;;;11.40;99.90;11.50;99012.00;;;;341536;28;89508;-87
2021/01/29 00:43:39;;;;;;;14.00;11.73;;;11.40;99.90;11.60;99007.00;;;;340072;28;89264;-87
2021/01/29 00:43:51;;;;;;;13.23;11.82;;;11.40;99.90;11.60;99013.00;;;;341316;28;90790;-87
2021/01/29 00:44:04;;;;;;;12.88;11.52;;;11.40;99.90;11.70;99015.00;;;;338784;28;87093;-87
2021/01/29 00:44:15;;;;;;;13.13;11.82;;;11.40;99.90;11.60;99005.00;;;;339488;28;87667;-87
2021/01/29 00:44:26;;;;;;;14.00;12.60;;;11.40;99.90;11.40;99008.00;;;;340042;28;87111;-87
2021/01/29 00:44:38;;;;;;;14.93;13.40;;;11.40;99.90;11.40;99017.00;;;;341350;28;89223;-87
2021/01/29 00:44:49;;;;;;;14.35;12.85;;;11.40;99.90;11.50;99016.00;;;;338766;28;86968;-87
2021/01/29 00:45:02;;;;;;;13.93;12.02;;;11.30;99.90;11.50;99003.00;;;;341609;28;89303;-87
2021/01/29 00:45:15;;;;;;;12.52;11.23;;;11.30;99.90;11.50;99007.00;;;;342031;28;87179;-87
2021/01/29 00:45:29;;;;;;;12.80;11.50;;;11.30;99.90;11.40;99009.00;;;;340178;28;89675;-87
2021/01/29 00:45:43;;;;;;;14.13;12.48;;;11.30;99.90;11.50;99008.00;;;;341566;28;86855;-87
2021/01/29 00:45:54;;;;;;;15.00;12.57;;;11.30;99.90;11.50;99006.00;;;;339860;28;90962;-87
2021/01/29 00:46:06;;;;;;;14.65;11.98;;;11.40;99.90;11.50;99005.00;;;;342585;28;86174;-87
2021/01/29 00:46:18;;;;;;;14.10;12.55;;;11.40;99.90;11.50;99009.00;;;;341488;28;88880;-87
2021/01/29 00:46:29;;;;;;;13.93;12.52;;;11.30;99.90;11.40;99008.00;;;;338713;28;87028;-87
2021/01/29 00:46:41;;;;;;;14.38;12.77;;;11.30;99.90;11.60;99010.00;;;;341531;28;89102;-87
2021/01/29 00:46:52;;;;;;;13.85;12.43;;;11.30;99.90;11.60;99007.00;;;;340007;28;89302;-87
2021/01/29 00:47:04;;;;;;;13.27;11.88;;;11.30;99.90;11.60;99007.00;;;;341537;28;89325;-87
2021/01/29 00:47:16;;;;;;;12.75;11.45;;;11.40;99.90;11.70;99004.00;;;;339511;28;87925;-87
2021/01/29 00:47:27;;;;;;;12.35;11.15;;;11.40;99.90;11.60;98998.00;;;;340479;28;88451;-86
2021/01/29 00:47:39;;;;;;;12.48;11.23;;;11.40;99.90;11.60;99004.00;;;;339902;28;87346;-87
2021/01/29 00:47:50;;;;;;;12.75;11.45;;;11.40;99.90;11.50;99003.00;;;;339904;28;89252;-87
2021/01/29 00:48:04;;;;;;;12.68;11.38;;;11.40;99.90;11.40;98997.00;;;;340183;28;86212;-87
2021/01/29 00:48:16;;;;;;;13.52;12.18;;;11.40;99.90;11.40;98995.00;;;;341474;28;89011;-87
2021/01/29 00:48:27;;;;;;;13.80;12.43;;;11.40;99.90;11.40;99001.00;;;;341499;28;86914;-87
2021/01/29 00:48:38;;;;;;;13.57;12.20;;;11.40;99.90;11.50;99000.00;;;;338772;28;90332;-88
2021/01/29 00:48:50;;;;;;;13.05;11.75;;;11.40;99.90;11.60;98997.00;;;;340119;28;87369;-87
2021/01/29 00:49:02;;;;;;;12.10;10.90;;;11.40;99.90;11.60;98998.00;;;;340140;28;89401;-87
2021/01/29 00:49:13;;;;;;;11.38;10.25;;;11.40;99.90;11.70;98992.00;;;;338616;28;87450;-87
2021/01/29 00:49:24;;;;;;;10.98;9.90;;;11.40;99.90;11.70;98998.00;;;;338832;28;89601;-87
2021/01/29 00:49:36;;;;;;;11.93;10.73;;;11.40;99.90;11.70;99001.00;;;;339748;28;87613;-87
2021/01/29 00:49:47;;;;;;;12.70;11.40;;;11.40;99.90;11.70;98997.00;;;;342663;28;89179;-87
2021/01/29 00:49:58;;;;;;;13.50;12.10;;;11.40;99.90;11.60;98997.00;;;;341378;28;87888;-87
2021/01/29 00:50:10;;;;;;;13.48;12.13;;;11.50;99.90;11.60;98996.00;;;;341525;28;88872;-87
2021/01/29 00:50:22;;;;;;;13.55;12.20;;;11.50;99.90;11.60;98990.00;;;;341214;28;87435;-87
2021/01/29 00:50:34;;;;;;;13.57;12.27;;;11.40;99.90;11.50;98999.00;;;;342650;28;89509;-87
2021/01/29 00:50:46;;;;;;;13.93;12.57;;;11.50;99.90;11.60;98984.00;;;;340106;28;86991;-87
2021/01/29 00:50:57;;;;;;;13.85;12.55;;;11.50;99.90;11.60;98998.00;;;;340190;28;89495;-87
2021/01/29 00:51:08;;;;;;;14.35;12.95;;;11.40;99.90;11.50;98996.00;;;;341305;28;88764;-87
2021/01/29 00:51:20;;;;;;;14.20;12.73;;;11.40;99.90;11.70;98992.00;;;;342765;28;92511;-87
2021/01/29 00:51:31;;;;;;;13.27;11.82;;;11.50;99.90;11.60;98992.00;;;;341372;28;87077;-87
2021/01/29 00:51:43;;;;;;;12.45;11.00;;;11.50;99.90;11.70;98999.00;;;;342787;28;89498;-87
2021/01/29 00:51:54;;;;;;;12.30;11.00;;;11.50;99.90;11.60;98989.00;;;;338557;28;86344;-87
2021/01/29 00:52:05;;;;;;;12.32;11.02;;;11.50;99.90;11.60;98992.00;;;;339859;28;90559;-87
2021/01/29 00:52:17;;;;;;;13.10;11.48;;;11.50;99.90;11.60;98999.00;;;;341492;28;86850;-87
2021/01/29 00:52:28;;;;;;;13.90;12.25;;;11.50;99.90;11.60;98999.00;;;;340182;28;90035;-87
2021/01/29 00:52:39;;;;;;;13.72;12.34;;;11.50;99.90;11.60;98989.00;;;;341479;28;86208;-87